Portada
METAR-TAF:

METAR-TAF

Aeroports :

Koror, Babeldaob, Palau

latitud: 07-22N, longitud: 134-32E, altitud: 54 m

Observació

L'informe es va fer fa 10 minuts, a les 22:50 UTC
Vent calma
Temperatura 29°C
Humitat 79%
Pressió 1010 hPa
Visibilitat: 24.1 km
Núvols disperses a una alçada de 1700 ft
Cel ennuvolat a una alçada de 12000 ft
Cel ennuvolat a una alçada de 30000 ft

METAR: PTRO 192250Z 00000KT 15SM SCT017 BKN120 BKN300 29/25 A2982

Hora: 08:00 (23:00 UTC)

Pronòstic

L'informe es va fer fa 5 hores i 40 minuts, a les 17:20 UTC
Pronòstic vàlid del 19 a les 18 UTC al 20 a les 18 UTC
Vent 5 kt amb direcció variable
Visibilitat: 10 km
Núvols disperses a una alçada de 1600 ft
xàfecs en les proximitats

TAF: PTRO 191720Z 1918/2018 VRB05KT P6SM VCSH SCT016

Observacions i pronòstics meteorològics de més de 4000 aeroports (METAR i TAF).

Les estacions disponibles són els punts grocs i vermells al mapa.

Posi el ratolí al punt desitjat per veure el nom de l'estació.

Feu clic per veure les observacions i els pronòstics meteorològics.

Per canviar el mapa: feu clic els botons verds amb una creu de color negre per apropar; al botó verd amb un guió per allunyar la imatge; o en les fletxes verdes per a mapes adjacents.


METAR-TAF: